Nyk Romulus — 9V7644 — position and weather

sailwx.info

Track history (hours):
 
Tides and Currents Weather Stations Pressure Air Temp Water Temp Dewpoint Dewpoint Depression Visibility Wind Speed Wind Dir Waves Ship Positions

Nyk Romulus

Last reported at 2019-Jul-14 04:04 UTC. Time now 2019-Jul-17 04:28 UTC.
Position N 27°17' W 115°25'.

Length 294 m; draft 9.7 m.

Type: Cargo ship. MMSI: 563079000.

Date/timePositionNaut miles runAvg speedWind from/ knotsBaromVisibWave heightAir tempDewpointWater temp
2019-Jul-14 04:04N 27°17' W 115°25'116.9
2019-Jul-14 03:59N 27°19' W 115°26'1616.6
2019-Jul-14 03:00N 27°32' W 115°37'816.9
2019-Jul-14 02:31N 27°38' W 115°42'1016.8
2019-Jul-14 01:54N 27°47' W 115°49'9316.6
2019-Jul-13 20:18N 29°13' W 116°28'1116.9
2019-Jul-13 19:38N 29°24' W 116°32'6517.0
2019-Jul-13 15:49N 30°25' W 116°57'717.1
2019-Jul-13 15:23N 30°32' W 116°59'1617.0
2019-Jul-13 14:25N 30°48' W 117°06'716.5
2019-Jul-13 14:00N 30°54' W 117°08'816.7
2019-Jul-13 13:31N 31°02' W 117°11'816.8
2019-Jul-13 13:01N 31°10' W 117°14'817.0
2019-Jul-13 12:31N 31°18' W 117°18'816.9
2019-Jul-13 12:01N 31°26' W 117°21'917.2
2019-Jul-13 11:31N 31°34' W 117°24'816.9
2019-Jul-13 11:00N 31°42' W 117°27'917.1
2019-Jul-13 10:31N 31°50' W 117°31'917.1
2019-Jul-13 10:01N 31°58' W 117°34'917.2
2019-Jul-13 09:30N 32°06' W 117°37'917.2
2019-Jul-13 09:01N 32°14' W 117°40'917.3
2019-Jul-13 08:30N 32°23' W 117°43'917.3
2019-Jul-13 08:00N 32°31' W 117°46'917.4
2019-Jul-13 07:31N 32°39' W 117°50'917.1
2019-Jul-13 07:01N 32°47' W 117°54'917.3
2019-Jul-13 06:30N 32°55' W 117°57'917.1
2019-Jul-13 06:00N 33°03' W 118°00'612.3
2019-Jul-13 05:30N 33°09' W 118°02'611.9
2019-Jul-13 05:01N 33°15' W 118°04'611.8
2019-Jul-13 04:31N 33°20' W 118°07'611.6
2019-Jul-13 04:01N 33°26' W 118°09'611.7
2019-Jul-13 03:31N 33°31' W 118°12'510.9
2019-Jul-13 03:01N 33°37' W 118°12'5 9.7
2019-Jul-13 02:31N 33°41' W 118°11'3 5.8
2019-Jul-13 02:01N 33°44' W 118°12'1 1.4
2019-Jul-13 01:29N 33°45' W 118°12'0 0.1
2019-Jul-13 00:59N 33°45' W 118°12'0 0.1
2019-Jul-13 00:29N 33°45' W 118°12'0 0.0
2019-Jul-12 23:59N 33°45' W 118°12'0 0.0
2019-Jul-12 23:29N 33°45' W 118°12'0 0.1
2019-Jul-12 22:59N 33°45' W 118°12'0 0.0
2019-Jul-12 22:29N 33°45' W 118°12'0 0.0
2019-Jul-12 21:59N 33°45' W 118°12'0 0.0
2019-Jul-12 21:29N 33°45' W 118°12'0 0.0
2019-Jul-12 20:59N 33°45' W 118°12'0 0.0
2019-Jul-12 20:29N 33°45' W 118°12'0 0.0
2019-Jul-12 19:59N 33°45' W 118°12'0 0.0
2019-Jul-12 19:29N 33°45' W 118°12'0 0.0
2019-Jul-12 18:59N 33°45' W 118°12'0 0.0
2019-Jul-12 18:29N 33°45' W 118°12'0 0.0
2019-Jul-12 17:59N 33°45' W 118°12'0 0.1
2019-Jul-12 17:29N 33°45' W 118°12'0 0.1
2019-Jul-12 16:59N 33°45' W 118°12'0 0.1
2019-Jul-12 16:29N 33°45' W 118°12'0 0.0
2019-Jul-12 15:59N 33°45' W 118°12'0 0.0
2019-Jul-12 15:26N 33°45' W 118°12'0 0.0
2019-Jul-12 14:59N 33°45' W 118°12'0 0.0
2019-Jul-12 14:29N 33°45' W 118°12'0 0.0
2019-Jul-12 13:59N 33°45' W 118°12'1 1.4
2019-Jul-12 13:30N 33°44' W 118°12'3 6.2
2019-Jul-12 13:00N 33°42' W 118°11'4 8.1
2019-Jul-12 12:30N 33°38' W 118°14'5 9.2
2019-Jul-12 12:00N 33°36' W 118°19'510.3
2019-Jul-12 11:30N 33°38' W 118°24'5 9.7
2019-Jul-12 11:00N 33°40' W 118°29'4 8.5
2019-Jul-12 10:30N 33°43' W 118°34'4 8.5
2019-Jul-12 10:00N 33°45' W 118°38'3 5.2
2019-Jul-12 09:30N 33°46' W 118°41'2 3.7
2019-Jul-12 09:00N 33°47' W 118°43'2 4.0
2019-Jul-12 08:30N 33°48' W 118°45'510.4
2019-Jul-12 08:00N 33°50' W 118°50'611.6
2019-Jul-12 07:30N 33°53' W 118°56'611.6
2019-Jul-12 07:00N 33°56' W 119°03'612.8
2019-Jul-12 06:30N 33°59' W 119°09'713.2
2019-Jul-12 06:00N 34°03' W 119°16'713.1
2019-Jul-12 05:30N 34°04' W 119°24'713.2
2019-Jul-12 05:00N 34°06' W 119°31'713.6
2019-Jul-12 04:30N 34°08' W 119°39'714.0
2019-Jul-12 04:00N 34°10' W 119°48'713.8
2019-Jul-12 03:30N 34°12' W 119°55'714.1
2019-Jul-12 03:00N 34°13' W 120°04'1413.7
2019-Jul-12 02:00N 34°17' W 120°20'714.0
2019-Jul-12 01:30N 34°18' W 120°28'3711.9
2019-Jul-11 22:26N 34°35' W 121°08'613.6
2019-Jul-11 22:00N 34°40' W 121°10'1713.1
2019-Jul-11 20:41N 34°55' W 121°22'513.1
2019-Jul-11 20:19N 34°59' W 121°25'10 4.8
2019-Jul-11 18:19N 35°06' W 121°32'39 6.8
2019-Jul-11 12:34N 35°38' W 121°60'112.7
2019-Jul-11 12:30N 35°39' W 122°00'712.8
2019-Jul-11 11:59N 35°45' W 122°03'1213.0
2019-Jul-11 11:04N 35°56' W 122°09'113.4
2019-Jul-11 10:58N 35°57' W 122°09'613.1
2019-Jul-11 10:30N 36°03' W 122°12'713.2
2019-Jul-11 10:00N 36°09' W 122°15'612.7
2019-Jul-11 09:30N 36°15' W 122°17'612.6
2019-Jul-11 09:00N 36°21' W 122°20'612.8
2019-Jul-11 08:30N 36°27' W 122°23'612.9
2019-Jul-11 08:00N 36°33' W 122°26'713.0
2019-Jul-11 07:30N 36°39' W 122°29'713.2
2019-Jul-11 07:00N 36°45' W 122°32'713.5
2019-Jul-11 06:30N 36°51' W 122°35'713.7
2019-Jul-11 06:00N 36°58' W 122°38'713.6
2019-Jul-11 05:30N 37°04' W 122°41'713.5
2019-Jul-11 05:00N 37°11' W 122°44'713.8
2019-Jul-11 04:30N 37°17' W 122°44'611.8
2019-Jul-11 04:00N 37°23' W 122°44'510.5
2019-Jul-11 03:30N 37°29' W 122°44'510.1
2019-Jul-11 03:00N 37°34' W 122°44'510.1
2019-Jul-11 02:30N 37°39' W 122°44'5 9.5
2019-Jul-11 02:00N 37°43' W 122°41'5 9.2
2019-Jul-11 01:30N 37°46' W 122°37'713.6
2019-Jul-11 01:00N 37°49' W 122°29'510.0
2019-Jul-11 00:30N 37°49' W 122°23'4 8.0
2019-Jul-11 00:00N 37°48' W 122°18'0 0.5
2019-Jul-10 23:30N 37°48' W 122°18'1 1.7
2019-Jul-10 22:59N 37°48' W 122°19'0 0.0
2019-Jul-10 22:29N 37°48' W 122°19'0 0.0
2019-Jul-10 21:59N 37°48' W 122°19'0 0.0
2019-Jul-10 21:29N 37°48' W 122°19'0 0.0
2019-Jul-10 20:59N 37°48' W 122°19'0 0.0
2019-Jul-10 20:29N 37°48' W 122°19'0 0.0
2019-Jul-10 19:59N 37°48' W 122°19'0 0.0
2019-Jul-10 19:29N 37°48' W 122°19'0 0.0
2019-Jul-10 18:59N 37°48' W 122°19'0 0.0
2019-Jul-10 18:29N 37°48' W 122°19'0 0.0
2019-Jul-10 17:59N 37°48' W 122°19'0 0.0
2019-Jul-10 17:29N 37°48' W 122°19'0 0.0
2019-Jul-10 16:59N 37°48' W 122°19'0 0.0
2019-Jul-10 16:29N 37°48' W 122°19'0 0.0
2019-Jul-10 15:59N 37°48' W 122°19'0 0.0
2019-Jul-10 15:29N 37°48' W 122°19'0 0.0
2019-Jul-10 14:59N 37°48' W 122°19'0 0.0
2019-Jul-10 14:29N 37°48' W 122°19'0 0.0
2019-Jul-10 13:59N 37°48' W 122°19'0 0.0
2019-Jul-10 13:29N 37°48' W 122°19'0 0.0
2019-Jul-10 13:00N 37°48' W 122°19'3 5.3
2019-Jul-10 12:30N 37°48' W 122°23'713.4
2019-Jul-10 12:00N 37°48' W 122°31'815.7
2019-Jul-10 11:30N 37°46' W 122°41'4 8.5
2019-Jul-10 11:00N 37°46' W 122°46'4 7.7
2019-Jul-10 10:30N 37°48' W 122°50'5 9.5
2019-Jul-10 10:00N 37°50' W 122°56'5 9.7
2019-Jul-10 09:30N 37°53' W 123°01'510.2
2019-Jul-10 09:00N 37°56' W 123°06'510.3
2019-Jul-10 08:30N 37°59' W 123°12'510.4
2019-Jul-10 08:00N 38°02' W 123°16'510.4
2019-Jul-10 07:30N 38°06' W 123°21'714.1
2019-Jul-10 07:01N 38°10' W 123°28'815.8
2019-Jul-10 06:31N 38°15' W 123°36'815.7
2019-Jul-10 06:01N 38°20' W 123°44'816.1
2019-Jul-10 05:31N 38°25' W 123°52'815.9
2019-Jul-10 05:01N 38°29' W 124°00'815.8
2019-Jul-10 04:30N 38°34' W 124°09'815.2
2019-Jul-10 04:00N 38°41' W 124°13'815.7
2019-Jul-10 03:28N 38°49' W 124°17'1015.4
2019-Jul-10 02:51N 38°58' W 124°21'615.2
2019-Jul-10 02:26N 39°03' W 124°25'25116.9
2019-Jul-09 11:38N 43°11' W 125°14'219.0
2019-Jul-09 11:30N 43°13' W 125°15'1218.6
2019-Jul-09 10:51N 43°26' W 125°15'818.9
2019-Jul-09 10:27N 43°33' W 125°16'919.0
2019-Jul-09 10:00N 43°42' W 125°15'1418.9
2019-Jul-09 09:14N 43°56' W 125°16'718.9
2019-Jul-09 08:51N 44°03' W 125°16'718.7
2019-Jul-09 08:30N 44°10' W 125°16'918.8
2019-Jul-09 08:00N 44°19' W 125°16'918.9
2019-Jul-09 07:30N 44°29' W 125°17'1018.6
2019-Jul-09 06:59N 44°38' W 125°17'919.0
2019-Jul-09 06:30N 44°48' W 125°17'1019.1
2019-Jul-09 06:00N 44°57' W 125°17'1019.0
2019-Jul-09 05:30N 45°07' W 125°18'1019.3
2019-Jul-09 05:00N 45°16' W 125°18'1019.5
2019-Jul-09 04:30N 45°26' W 125°18'1919.3
2019-Jul-09 03:30N 45°45' W 125°19'1019.1
2019-Jul-09 03:00N 45°55' W 125°19'1019.3
2019-Jul-09 02:30N 46°04' W 125°19'1019.1
2019-Jul-09 02:00N 46°14' W 125°19'1019.0
2019-Jul-09 01:30N 46°24' W 125°20'919.1
2019-Jul-09 01:00N 46°33' W 125°20'1019.3
2019-Jul-09 00:30N 46°43' W 125°20'1119.1
2019-Jul-08 23:55N 46°54' W 125°21'1019.3
2019-Jul-08 23:25N 47°04' W 125°21'1019.4
2019-Jul-08 22:54N 47°14' W 125°21'4319.0
2019-Jul-08 20:38N 47°57' W 125°22'419.1
2019-Jul-08 20:25N 48°01' W 125°21'819.4
2019-Jul-08 19:59N 48°09' W 125°18'919.4
2019-Jul-08 19:30N 48°18' W 125°13'918.7
2019-Jul-08 19:00N 48°26' W 125°07'918.9
2019-Jul-08 18:30N 48°31' W 124°55'1020.2
2019-Jul-08 18:00N 48°30' W 124°40'1020.6
2019-Jul-08 17:30N 48°26' W 124°26'1020.2
2019-Jul-08 17:00N 48°22' W 124°12'1019.9
2019-Jul-08 16:30N 48°18' W 123°58'1019.6
2019-Jul-08 16:00N 48°17' W 123°43'918.6
2019-Jul-08 15:30N 48°14' W 123°30'815.0
2019-Jul-08 15:00N 48°08' W 123°23'815.0
2019-Jul-08 14:29N 48°11' W 123°12'919.5
2019-Jul-08 14:00N 48°12' W 122°58'1019.0
2019-Jul-08 13:29N 48°10' W 122°44'919.1
2019-Jul-08 13:00N 48°01' W 122°37'1019.6
2019-Jul-08 12:30N 47°54' W 122°28'1020.6
2019-Jul-08 12:00N 47°43' W 122°26'714.1
2019-Jul-08 11:30N 47°37' W 122°23'2 4.5
2019-Jul-08 11:00N 47°35' W 122°21'0 0.4
2019-Jul-08 10:28N 47°35' W 122°21'0 0.0
2019-Jul-08 09:58N 47°35' W 122°21'0 0.0
2019-Jul-08 09:28N 47°35' W 122°21'0 0.0
2019-Jul-08 08:58N 47°35' W 122°21'0 0.0
2019-Jul-08 08:28N 47°35' W 122°21'0 0.0
2019-Jul-08 07:58N 47°35' W 122°21'0 0.0
2019-Jul-08 07:28N 47°35' W 122°21'0 0.0
2019-Jul-08 06:58N 47°35' W 122°21'0 0.0
2019-Jul-08 06:28N 47°35' W 122°21'0 0.0
2019-Jul-08 05:58N 47°35' W 122°21'0 0.0
2019-Jul-08 05:28N 47°35' W 122°21'0 0.0
2019-Jul-08 04:58N 47°35' W 122°21'0 0.0
2019-Jul-08 04:28N 47°35' W 122°21'0 0.0
2019-Jul-08 03:58N 47°35' W 122°21'0 0.0
2019-Jul-08 03:28N 47°35' W 122°21'0 0.0
2019-Jul-08 02:58N 47°35' W 122°21'0 0.0
2019-Jul-08 02:28N 47°35' W 122°21'0 0.0
2019-Jul-08 01:58N 47°35' W 122°21'0 0.0
2019-Jul-08 01:28N 47°35' W 122°21'0 0.0
2019-Jul-08 00:58N 47°35' W 122°21'0 0.0
2019-Jul-08 00:28N 47°35' W 122°21'0 0.0
2019-Jul-07 23:58N 47°35' W 122°21'0 0.0
2019-Jul-07 23:25N 47°35' W 122°21'0 0.0
2019-Jul-07 22:58N 47°35' W 122°21'0 0.0
2019-Jul-07 22:28N 47°35' W 122°21'0 0.0
2019-Jul-07 21:58N 47°35' W 122°21'0 0.0
2019-Jul-07 21:28N 47°35' W 122°21'0 0.0
2019-Jul-07 20:58N 47°35' W 122°21'0 0.0
2019-Jul-07 20:28N 47°35' W 122°21'0 0.0
2019-Jul-07 19:58N 47°35' W 122°21'0 0.0
2019-Jul-07 19:28N 47°35' W 122°21'0 0.0
2019-Jul-07 18:58N 47°35' W 122°21'0 0.0
2019-Jul-07 18:28N 47°35' W 122°21'0 0.0
2019-Jul-07 17:58N 47°35' W 122°21'0 0.0
2019-Jul-07 17:28N 47°35' W 122°21'0 0.0
2019-Jul-07 16:58N 47°35' W 122°21'0 0.0
2019-Jul-07 16:28N 47°35' W 122°21'0 0.0
2019-Jul-07 15:58N 47°35' W 122°21'0 0.0
2019-Jul-07 15:25N 47°35' W 122°21'0 0.0
2019-Jul-07 14:58N 47°35' W 122°21'0 0.0
2019-Jul-07 14:28N 47°35' W 122°21'0 0.8
2019-Jul-07 14:00N 47°35' W 122°21'4 7.6
2019-Jul-07 13:31N 47°38' W 122°25'815.3
2019-Jul-07 13:00N 47°45' W 122°27'1020.5
2019-Jul-07 12:31N 47°55' W 122°30'1120.4
2019-Jul-07 11:59N 48°04' W 122°39'1020.5
2019-Jul-07 11:30N 48°11' W 122°50'1121.5
2019-Jul-07 11:00N 48°12' W 123°06'918.4
2019-Jul-07 10:30N 48°10' W 123°19'611.1
2019-Jul-07 10:00N 48°11' W 123°28'816.3
2019-Jul-07 09:30N 48°20' W 123°27'510.3
2019-Jul-07 09:00N 48°23' W 123°21'713.5
2019-Jul-07 08:30N 48°26' W 123°12'815.2
2019-Jul-07 08:00N 48°34' W 123°13'815.4
2019-Jul-07 07:30N 48°41' W 123°16'714.6
2019-Jul-07 07:01N 48°45' W 123°06'611.2
2019-Jul-07 06:30N 48°50' W 123°02'918.1
2019-Jul-07 06:00N 48°56' W 123°12'917.4
2019-Jul-07 05:31N 49°02' W 123°22'510.6
2019-Jul-07 05:00N 49°07' W 123°17'611.4
2019-Jul-07 04:31N 49°06' W 123°08'510.9
2019-Jul-07 04:01N 49°09' W 123°01'4 8.6
2019-Jul-07 03:31N 49°11' W 122°55'0 0.6
2019-Jul-07 02:59N 49°11' W 122°55'0 0.0
2019-Jul-07 01:59N 49°11' W 122°55'0 0.0
2019-Jul-07 01:29N 49°11' W 122°55'0 0.0
2019-Jul-07 00:59N 49°11' W 122°55'0 0.0
2019-Jul-07 00:29N 49°11' W 122°55'0 0.0
2019-Jul-06 23:59N 49°11' W 122°55'0 0.0
2019-Jul-06 23:29N 49°11' W 122°55'0 0.0
2019-Jul-06 22:59N 49°11' W 122°55'0 0.0
2019-Jul-06 22:29N 49°11' W 122°55'0 0.0
2019-Jul-06 21:59N 49°11' W 122°55'0 0.0
2019-Jul-06 21:29N 49°11' W 122°55'0 0.0
2019-Jul-06 20:59N 49°11' W 122°55'0 0.0
2019-Jul-06 20:29N 49°11' W 122°55'0 0.0
2019-Jul-06 19:59N 49°11' W 122°55'0 0.0
2019-Jul-06 19:29N 49°11' W 122°55'0 0.0
2019-Jul-06 18:59N 49°11' W 122°55'0 0.0
2019-Jul-06 18:29N 49°11' W 122°55'0 0.0
2019-Jul-06 17:59N 49°11' W 122°55'0 0.0
2019-Jul-06 17:29N 49°11' W 122°55'0 0.0
2019-Jul-06 16:59N 49°11' W 122°55'0 0.0
2019-Jul-06 16:29N 49°11' W 122°55'0 0.0
2019-Jul-06 15:59N 49°11' W 122°55'0 0.0
2019-Jul-06 15:29N 49°11' W 122°55'0 0.0
2019-Jul-06 14:59N 49°11' W 122°55'0 0.0
2019-Jul-06 14:29N 49°11' W 122°55'0 0.0
2019-Jul-06 13:59N 49°11' W 122°55'0 0.0
2019-Jul-06 13:29N 49°11' W 122°55'0 0.0
2019-Jul-06 12:59N 49°11' W 122°55'0 0.3
2019-Jul-06 12:30N 49°11' W 122°55'2 4.5
2019-Jul-06 12:01N 49°09' W 122°57'4 8.8
2019-Jul-06 11:31N 49°08' W 123°04'510.3
2019-Jul-06 11:00N 49°07' W 123°11'611.4
2019-Jul-06 10:30N 49°06' W 123°20'4 8.0
2019-Jul-06 10:01N 49°02' W 123°17'714.0
2019-Jul-06 09:30N 48°57' W 123°09'714.1
2019-Jul-06 09:01N 48°52' W 123°02'611.3
2019-Jul-06 08:30N 48°46' W 123°01'713.5
2019-Jul-06 08:00N 48°43' W 123°10'611.3
2019-Jul-06 07:31N 48°38' W 123°14'714.3
2019-Jul-06 07:01N 48°31' W 123°11'713.0
2019-Jul-06 06:30N 48°25' W 123°11'612.4
2019-Jul-06 06:00N 48°22' W 123°19'3 5.1
2019-Jul-06 05:30N 48°21' W 123°22'1 1.7
2019-Jul-06 05:00N 48°21' W 123°21'0 0.1
2019-Jul-06 04:31N 48°21' W 123°22'0 0.1
2019-Jul-06 04:00N 48°21' W 123°21'0 0.0
2019-Jul-06 03:30N 48°21' W 123°21'0 0.0
2019-Jul-06 03:01N 48°21' W 123°21'0 0.0
2019-Jul-06 01:54N 48°21' W 123°21'0 0.0
2019-Jul-06 01:22N 48°21' W 123°21'0 0.1
2019-Jul-06 00:58N 48°21' W 123°21'0 0.0
2019-Jul-06 00:18N 48°21' W 123°21'0 0.0
2019-Jul-05 23:40N 48°21' W 123°21'0 0.0
2019-Jul-05 23:27N 48°21' W 123°21'0 0.0
2019-Jul-05 21:12N 48°21' W 123°21'0 0.2
2019-Jul-05 21:00N 48°21' W 123°22'0 0.2
2019-Jul-05 20:30N 48°21' W 123°22'0 0.1
2019-Jul-05 20:00N 48°21' W 123°22'0 0.1
2019-Jul-05 19:30N 48°21' W 123°22'0 0.0
2019-Jul-05 19:00N 48°21' W 123°22'0 0.0
2019-Jul-05 18:30N 48°21' W 123°22'0 0.0
2019-Jul-05 18:00N 48°21' W 123°22'0 0.0
2019-Jul-05 17:31N 48°21' W 123°22'0 0.1
2019-Jul-05 17:01N 48°21' W 123°22'0 0.0
2019-Jul-05 16:31N 48°21' W 123°22'0 0.0
2019-Jul-05 16:00N 48°21' W 123°22'0 0.1
2019-Jul-05 15:30N 48°21' W 123°22'0 0.0
2019-Jul-05 15:00N 48°21' W 123°22'0 0.0
2019-Jul-05 14:30N 48°21' W 123°22'0 0.1
2019-Jul-05 14:01N 48°21' W 123°22'0 0.2
2019-Jul-05 13:30N 48°21' W 123°22'0 0.2
2019-Jul-05 13:00N 48°21' W 123°21'0 0.0
2019-Jul-05 12:30N 48°21' W 123°21'0 0.1
2019-Jul-05 12:00N 48°21' W 123°22'0 0.1
2019-Jul-05 11:28N 48°21' W 123°21'0 0.0
2019-Jul-05 11:00N 48°21' W 123°21'0 0.1
2019-Jul-05 10:30N 48°21' W 123°22'0 0.1
2019-Jul-05 10:01N 48°21' W 123°22'0 0.1
2019-Jul-05 09:30N 48°21' W 123°22'0 0.1
2019-Jul-05 09:00N 48°21' W 123°22'0 0.1
2019-Jul-05 08:31N 48°21' W 123°22'0 0.0
2019-Jul-05 08:01N 48°21' W 123°22'0 0.1
2019-Jul-05 07:30N 48°21' W 123°22'0 0.0
2019-Jul-05 07:01N 48°21' W 123°22'0 0.0
2019-Jul-05 06:30N 48°21' W 123°22'0 0.1
2019-Jul-05 06:00N 48°21' W 123°22'0 0.1
2019-Jul-05 05:30N 48°21' W 123°22'0 0.3
2019-Jul-05 05:01N 48°21' W 123°22'0 0.1
2019-Jul-05 04:30N 48°21' W 123°22'0 0.1
2019-Jul-05 04:00N 48°21' W 123°22'0 0.1
2019-Jul-05 03:25N 48°21' W 123°21'0 0.0
2019-Jul-05 03:00N 48°21' W 123°21'0 0.0
2019-Jul-05 01:54N 48°21' W 123°21'0 0.0
2019-Jul-05 01:30N 48°21' W 123°21'0 0.1
2019-Jul-05 00:58N 48°21' W 123°21'0 0.1
2019-Jul-05 00:16N 48°21' W 123°21'0 0.1
2019-Jul-04 23:51N 48°21' W 123°21'0 0.1
2019-Jul-04 23:28N 48°21' W 123°21'0 0.0
2019-Jul-04 22:58N 48°21' W 123°21'0 0.0
2019-Jul-04 22:15N 48°21' W 123°21'0 0.1
2019-Jul-04 20:42N 48°21' W 123°21'0 0.3
2019-Jul-04 20:25N 48°21' W 123°21'1 1.6
2019-Jul-04 20:00N 48°21' W 123°22'3 7.0
2019-Jul-04 19:30N 48°18' W 123°25'5 9.7
2019-Jul-04 19:00N 48°14' W 123°29'610.8
2019-Jul-04 18:28N 48°14' W 123°38'510.7
2019-Jul-04 18:00N 48°13' W 123°45'611.0
2019-Jul-04 17:29N 48°14' W 123°54'511.4
2019-Jul-04 17:00N 48°16' W 124°02'611.2
2019-Jul-04 16:29N 48°18' W 124°09'611.3
2019-Jul-04 16:00N 48°20' W 124°17'611.2
2019-Jul-04 15:30N 48°23' W 124°25'511.0
2019-Jul-04 15:00N 48°25' W 124°32'510.9
2019-Jul-04 14:30N 48°27' W 124°40'611.5
2019-Jul-04 14:00N 48°28' W 124°48'712.9
2019-Jul-04 13:29N 48°28' W 124°58'713.7
2019-Jul-04 13:00N 48°23' W 125°04'714.4
2019-Jul-04 12:30N 48°16' W 125°09'713.9
2019-Jul-04 12:00N 48°10' W 125°13'814.2
2019-Jul-04 11:28N 48°03' W 125°17'1113.8
2019-Jul-04 10:38N 47°52' W 125°23'2314.2
2019-Jul-04 09:00N 47°29' W 125°22'5014.1
2019-Jul-04 05:25N 46°38' W 125°20'1114.1
2019-Jul-04 04:38N 46°27' W 125°20'213.9
2019-Jul-04 04:30N 46°25' W 125°20'  
Track history (hours):
 
Tides and Currents Weather Stations Pressure Air Temp Water Temp Dewpoint Dewpoint Depression Visibility Wind Speed Wind Dir Waves Ship Positions

Nyk Romulus

Last reported at 2019-Jul-14 04:04 UTC. Time now 2019-Jul-17 04:28 UTC.
Position N 27°17' W 115°25'.

Length 294 m; draft 9.7 m.

Type: Cargo ship. MMSI: 563079000.

Date/timePositionNaut miles runAvg speedWind from/ knotsBaromVisibWave heightAir tempDewpointWater temp
2019-Jul-14 04:04N 27°17' W 115°25'116.9
2019-Jul-14 03:59N 27°19' W 115°26'1616.6
2019-Jul-14 03:00N 27°32' W 115°37'816.9
2019-Jul-14 02:31N 27°38' W 115°42'1016.8
2019-Jul-14 01:54N 27°47' W 115°49'9316.6
2019-Jul-13 20:18N 29°13' W 116°28'1116.9
2019-Jul-13 19:38N 29°24' W 116°32'6517.0
2019-Jul-13 15:49N 30°25' W 116°57'717.1
2019-Jul-13 15:23N 30°32' W 116°59'1617.0
2019-Jul-13 14:25N 30°48' W 117°06'716.5
2019-Jul-13 14:00N 30°54' W 117°08'816.7
2019-Jul-13 13:31N 31°02' W 117°11'816.8
2019-Jul-13 13:01N 31°10' W 117°14'817.0
2019-Jul-13 12:31N 31°18' W 117°18'816.9
2019-Jul-13 12:01N 31°26' W 117°21'917.2
2019-Jul-13 11:31N 31°34' W 117°24'816.9
2019-Jul-13 11:00N 31°42' W 117°27'917.1
2019-Jul-13 10:31N 31°50' W 117°31'917.1
2019-Jul-13 10:01N 31°58' W 117°34'917.2
2019-Jul-13 09:30N 32°06' W 117°37'917.2
2019-Jul-13 09:01N 32°14' W 117°40'917.3
2019-Jul-13 08:30N 32°23' W 117°43'917.3
2019-Jul-13 08:00N 32°31' W 117°46'917.4
2019-Jul-13 07:31N 32°39' W 117°50'917.1
2019-Jul-13 07:01N 32°47' W 117°54'917.3
2019-Jul-13 06:30N 32°55' W 117°57'917.1
2019-Jul-13 06:00N 33°03' W 118°00'612.3
2019-Jul-13 05:30N 33°09' W 118°02'611.9
2019-Jul-13 05:01N 33°15' W 118°04'611.8
2019-Jul-13 04:31N 33°20' W 118°07'611.6
2019-Jul-13 04:01N 33°26' W 118°09'611.7
2019-Jul-13 03:31N 33°31' W 118°12'510.9
2019-Jul-13 03:01N 33°37' W 118°12'5 9.7
2019-Jul-13 02:31N 33°41' W 118°11'3 5.8
2019-Jul-13 02:01N 33°44' W 118°12'1 1.4
2019-Jul-13 01:29N 33°45' W 118°12'0 0.1
2019-Jul-13 00:59N 33°45' W 118°12'0 0.1
2019-Jul-13 00:29N 33°45' W 118°12'0 0.0
2019-Jul-12 23:59N 33°45' W 118°12'0 0.0
2019-Jul-12 23:29N 33°45' W 118°12'0 0.1
2019-Jul-12 22:59N 33°45' W 118°12'0 0.0
2019-Jul-12 22:29N 33°45' W 118°12'0 0.0
2019-Jul-12 21:59N 33°45' W 118°12'0 0.0
2019-Jul-12 21:29N 33°45' W 118°12'0 0.0
2019-Jul-12 20:59N 33°45' W 118°12'0 0.0
2019-Jul-12 20:29N 33°45' W 118°12'0 0.0
2019-Jul-12 19:59N 33°45' W 118°12'0 0.0
2019-Jul-12 19:29N 33°45' W 118°12'0 0.0
2019-Jul-12 18:59N 33°45' W 118°12'0 0.0
2019-Jul-12 18:29N 33°45' W 118°12'0 0.0
2019-Jul-12 17:59N 33°45' W 118°12'0 0.1
2019-Jul-12 17:29N 33°45' W 118°12'0 0.1
2019-Jul-12 16:59N 33°45' W 118°12'0 0.1
2019-Jul-12 16:29N 33°45' W 118°12'0 0.0
2019-Jul-12 15:59N 33°45' W 118°12'0 0.0
2019-Jul-12 15:26N 33°45' W 118°12'0 0.0
2019-Jul-12 14:59N 33°45' W 118°12'0 0.0
2019-Jul-12 14:29N 33°45' W 118°12'0 0.0
2019-Jul-12 13:59N 33°45' W 118°12'1 1.4
2019-Jul-12 13:30N 33°44' W 118°12'3 6.2
2019-Jul-12 13:00N 33°42' W 118°11'4 8.1
2019-Jul-12 12:30N 33°38' W 118°14'5 9.2
2019-Jul-12 12:00N 33°36' W 118°19'510.3
2019-Jul-12 11:30N 33°38' W 118°24'5 9.7
2019-Jul-12 11:00N 33°40' W 118°29'4 8.5
2019-Jul-12 10:30N 33°43' W 118°34'4 8.5
2019-Jul-12 10:00N 33°45' W 118°38'3 5.2
2019-Jul-12 09:30N 33°46' W 118°41'2 3.7
2019-Jul-12 09:00N 33°47' W 118°43'2 4.0
2019-Jul-12 08:30N 33°48' W 118°45'510.4
2019-Jul-12 08:00N 33°50' W 118°50'611.6
2019-Jul-12 07:30N 33°53' W 118°56'611.6
2019-Jul-12 07:00N 33°56' W 119°03'612.8
2019-Jul-12 06:30N 33°59' W 119°09'713.2
2019-Jul-12 06:00N 34°03' W 119°16'713.1
2019-Jul-12 05:30N 34°04' W 119°24'713.2
2019-Jul-12 05:00N 34°06' W 119°31'713.6
2019-Jul-12 04:30N 34°08' W 119°39'714.0
2019-Jul-12 04:00N 34°10' W 119°48'713.8
2019-Jul-12 03:30N 34°12' W 119°55'714.1
2019-Jul-12 03:00N 34°13' W 120°04'1413.7
2019-Jul-12 02:00N 34°17' W 120°20'714.0
2019-Jul-12 01:30N 34°18' W 120°28'3711.9
2019-Jul-11 22:26N 34°35' W 121°08'613.6
2019-Jul-11 22:00N 34°40' W 121°10'1713.1
2019-Jul-11 20:41N 34°55' W 121°22'513.1
2019-Jul-11 20:19N 34°59' W 121°25'10 4.8
2019-Jul-11 18:19N 35°06' W 121°32'39 6.8
2019-Jul-11 12:34N 35°38' W 121°60'112.7
2019-Jul-11 12:30N 35°39' W 122°00'712.8
2019-Jul-11 11:59N 35°45' W 122°03'1213.0
2019-Jul-11 11:04N 35°56' W 122°09'113.4
2019-Jul-11 10:58N 35°57' W 122°09'613.1
2019-Jul-11 10:30N 36°03' W 122°12'713.2
2019-Jul-11 10:00N 36°09' W 122°15'612.7
2019-Jul-11 09:30N 36°15' W 122°17'612.6
2019-Jul-11 09:00N 36°21' W 122°20'612.8
2019-Jul-11 08:30N 36°27' W 122°23'612.9
2019-Jul-11 08:00N 36°33' W 122°26'713.0
2019-Jul-11 07:30N 36°39' W 122°29'713.2
2019-Jul-11 07:00N 36°45' W 122°32'713.5
2019-Jul-11 06:30N 36°51' W 122°35'713.7
2019-Jul-11 06:00N 36°58' W 122°38'713.6
2019-Jul-11 05:30N 37°04' W 122°41'713.5
2019-Jul-11 05:00N 37°11' W 122°44'713.8
2019-Jul-11 04:30N 37°17' W 122°44'611.8
2019-Jul-11 04:00N 37°23' W 122°44'510.5
2019-Jul-11 03:30N 37°29' W 122°44'510.1
2019-Jul-11 03:00N 37°34' W 122°44'510.1
2019-Jul-11 02:30N 37°39' W 122°44'5 9.5
2019-Jul-11 02:00N 37°43' W 122°41'5 9.2
2019-Jul-11 01:30N 37°46' W 122°37'713.6
2019-Jul-11 01:00N 37°49' W 122°29'510.0
2019-Jul-11 00:30N 37°49' W 122°23'4 8.0
2019-Jul-11 00:00N 37°48' W 122°18'0 0.5
2019-Jul-10 23:30N 37°48' W 122°18'1 1.7
2019-Jul-10 22:59N 37°48' W 122°19'0 0.0
2019-Jul-10 22:29N 37°48' W 122°19'0 0.0
2019-Jul-10 21:59N 37°48' W 122°19'0 0.0
2019-Jul-10 21:29N 37°48' W 122°19'0 0.0
2019-Jul-10 20:59N 37°48' W 122°19'0 0.0
2019-Jul-10 20:29N 37°48' W 122°19'0 0.0
2019-Jul-10 19:59N 37°48' W 122°19'0 0.0
2019-Jul-10 19:29N 37°48' W 122°19'0 0.0
2019-Jul-10 18:59N 37°48' W 122°19'0 0.0
2019-Jul-10 18:29N 37°48' W 122°19'0 0.0
2019-Jul-10 17:59N 37°48' W 122°19'0 0.0
2019-Jul-10 17:29N 37°48' W 122°19'0 0.0
2019-Jul-10 16:59N 37°48' W 122°19'0 0.0
2019-Jul-10 16:29N 37°48' W 122°19'0 0.0
2019-Jul-10 15:59N 37°48' W 122°19'0 0.0
2019-Jul-10 15:29N 37°48' W 122°19'0 0.0
2019-Jul-10 14:59N 37°48' W 122°19'0 0.0
2019-Jul-10 14:29N 37°48' W 122°19'0 0.0
2019-Jul-10 13:59N 37°48' W 122°19'0 0.0
2019-Jul-10 13:29N 37°48' W 122°19'0 0.0
2019-Jul-10 13:00N 37°48' W 122°19'3 5.3
2019-Jul-10 12:30N 37°48' W 122°23'713.4
2019-Jul-10 12:00N 37°48' W 122°31'815.7
2019-Jul-10 11:30N 37°46' W 122°41'4 8.5
2019-Jul-10 11:00N 37°46' W 122°46'4 7.7
2019-Jul-10 10:30N 37°48' W 122°50'5 9.5
2019-Jul-10 10:00N 37°50' W 122°56'5 9.7
2019-Jul-10 09:30N 37°53' W 123°01'510.2
2019-Jul-10 09:00N 37°56' W 123°06'510.3
2019-Jul-10 08:30N 37°59' W 123°12'510.4
2019-Jul-10 08:00N 38°02' W 123°16'510.4
2019-Jul-10 07:30N 38°06' W 123°21'714.1
2019-Jul-10 07:01N 38°10' W 123°28'815.8
2019-Jul-10 06:31N 38°15' W 123°36'815.7
2019-Jul-10 06:01N 38°20' W 123°44'816.1
2019-Jul-10 05:31N 38°25' W 123°52'815.9
2019-Jul-10 05:01N 38°29' W 124°00'815.8
2019-Jul-10 04:30N 38°34' W 124°09'815.2
2019-Jul-10 04:00N 38°41' W 124°13'815.7
2019-Jul-10 03:28N 38°49' W 124°17'1015.4
2019-Jul-10 02:51N 38°58' W 124°21'615.2
2019-Jul-10 02:26N 39°03' W 124°25'25116.9
2019-Jul-09 11:38N 43°11' W 125°14'219.0
2019-Jul-09 11:30N 43°13' W 125°15'1218.6
2019-Jul-09 10:51N 43°26' W 125°15'818.9
2019-Jul-09 10:27N 43°33' W 125°16'919.0
2019-Jul-09 10:00N 43°42' W 125°15'1418.9
2019-Jul-09 09:14N 43°56' W 125°16'718.9
2019-Jul-09 08:51N 44°03' W 125°16'718.7
2019-Jul-09 08:30N 44°10' W 125°16'918.8
2019-Jul-09 08:00N 44°19' W 125°16'918.9
2019-Jul-09 07:30N 44°29' W 125°17'1018.6
2019-Jul-09 06:59N 44°38' W 125°17'919.0
2019-Jul-09 06:30N 44°48' W 125°17'1019.1
2019-Jul-09 06:00N 44°57' W 125°17'1019.0
2019-Jul-09 05:30N 45°07' W 125°18'1019.3
2019-Jul-09 05:00N 45°16' W 125°18'1019.5
2019-Jul-09 04:30N 45°26' W 125°18'1919.3
2019-Jul-09 03:30N 45°45' W 125°19'1019.1
2019-Jul-09 03:00N 45°55' W 125°19'1019.3
2019-Jul-09 02:30N 46°04' W 125°19'1019.1
2019-Jul-09 02:00N 46°14' W 125°19'1019.0
2019-Jul-09 01:30N 46°24' W 125°20'919.1
2019-Jul-09 01:00N 46°33' W 125°20'1019.3
2019-Jul-09 00:30N 46°43' W 125°20'1119.1
2019-Jul-08 23:55N 46°54' W 125°21'1019.3
2019-Jul-08 23:25N 47°04' W 125°21'1019.4
2019-Jul-08 22:54N 47°14' W 125°21'4319.0
2019-Jul-08 20:38N 47°57' W 125°22'419.1
2019-Jul-08 20:25N 48°01' W 125°21'819.4
2019-Jul-08 19:59N 48°09' W 125°18'919.4
2019-Jul-08 19:30N 48°18' W 125°13'918.7
2019-Jul-08 19:00N 48°26' W 125°07'918.9
2019-Jul-08 18:30N 48°31' W 124°55'1020.2
2019-Jul-08 18:00N 48°30' W 124°40'1020.6
2019-Jul-08 17:30N 48°26' W 124°26'1020.2
2019-Jul-08 17:00N 48°22' W 124°12'1019.9
2019-Jul-08 16:30N 48°18' W 123°58'1019.6
2019-Jul-08 16:00N 48°17' W 123°43'918.6
2019-Jul-08 15:30N 48°14' W 123°30'815.0
2019-Jul-08 15:00N 48°08' W 123°23'815.0
2019-Jul-08 14:29N 48°11' W 123°12'919.5
2019-Jul-08 14:00N 48°12' W 122°58'1019.0
2019-Jul-08 13:29N 48°10' W 122°44'919.1
2019-Jul-08 13:00N 48°01' W 122°37'1019.6
2019-Jul-08 12:30N 47°54' W 122°28'1020.6
2019-Jul-08 12:00N 47°43' W 122°26'714.1
2019-Jul-08 11:30N 47°37' W 122°23'2 4.5
2019-Jul-08 11:00N 47°35' W 122°21'0 0.4
2019-Jul-08 10:28N 47°35' W 122°21'0 0.0
2019-Jul-08 09:58N 47°35' W 122°21'0 0.0
2019-Jul-08 09:28N 47°35' W 122°21'0 0.0
2019-Jul-08 08:58N 47°35' W 122°21'0 0.0
2019-Jul-08 08:28N 47°35' W 122°21'0 0.0
2019-Jul-08 07:58N 47°35' W 122°21'0 0.0
2019-Jul-08 07:28N 47°35' W 122°21'0 0.0
2019-Jul-08 06:58N 47°35' W 122°21'0 0.0
2019-Jul-08 06:28N 47°35' W 122°21'0 0.0
2019-Jul-08 05:58N 47°35' W 122°21'0 0.0
2019-Jul-08 05:28N 47°35' W 122°21'0 0.0
2019-Jul-08 04:58N 47°35' W 122°21'0 0.0
2019-Jul-08 04:28N 47°35' W 122°21'0 0.0
2019-Jul-08 03:58N 47°35' W 122°21'0 0.0
2019-Jul-08 03:28N 47°35' W 122°21'0 0.0
2019-Jul-08 02:58N 47°35' W 122°21'0 0.0
2019-Jul-08 02:28N 47°35' W 122°21'0 0.0
2019-Jul-08 01:58N 47°35' W 122°21'0 0.0
2019-Jul-08 01:28N 47°35' W 122°21'0 0.0
2019-Jul-08 00:58N 47°35' W 122°21'0 0.0
2019-Jul-08 00:28N 47°35' W 122°21'0 0.0
2019-Jul-07 23:58N 47°35' W 122°21'0 0.0
2019-Jul-07 23:25N 47°35' W 122°21'0 0.0
2019-Jul-07 22:58N 47°35' W 122°21'0 0.0
2019-Jul-07 22:28N 47°35' W 122°21'0 0.0
2019-Jul-07 21:58N 47°35' W 122°21'0 0.0
2019-Jul-07 21:28N 47°35' W 122°21'0 0.0
2019-Jul-07 20:58N 47°35' W 122°21'0 0.0
2019-Jul-07 20:28N 47°35' W 122°21'0 0.0
2019-Jul-07 19:58N 47°35' W 122°21'0 0.0
2019-Jul-07 19:28N 47°35' W 122°21'0 0.0
2019-Jul-07 18:58N 47°35' W 122°21'0 0.0
2019-Jul-07 18:28N 47°35' W 122°21'0 0.0
2019-Jul-07 17:58N 47°35' W 122°21'0 0.0
2019-Jul-07 17:28N 47°35' W 122°21'0 0.0
2019-Jul-07 16:58N 47°35' W 122°21'0 0.0
2019-Jul-07 16:28N 47°35' W 122°21'0 0.0
2019-Jul-07 15:58N 47°35' W 122°21'0 0.0
2019-Jul-07 15:25N 47°35' W 122°21'0 0.0
2019-Jul-07 14:58N 47°35' W 122°21'0 0.0
2019-Jul-07 14:28N 47°35' W 122°21'0 0.8
2019-Jul-07 14:00N 47°35' W 122°21'4 7.6
2019-Jul-07 13:31N 47°38' W 122°25'815.3
2019-Jul-07 13:00N 47°45' W 122°27'1020.5
2019-Jul-07 12:31N 47°55' W 122°30'1120.4
2019-Jul-07 11:59N 48°04' W 122°39'1020.5
2019-Jul-07 11:30N 48°11' W 122°50'1121.5
2019-Jul-07 11:00N 48°12' W 123°06'918.4
2019-Jul-07 10:30N 48°10' W 123°19'611.1
2019-Jul-07 10:00N 48°11' W 123°28'816.3
2019-Jul-07 09:30N 48°20' W 123°27'510.3
2019-Jul-07 09:00N 48°23' W 123°21'713.5
2019-Jul-07 08:30N 48°26' W 123°12'815.2
2019-Jul-07 08:00N 48°34' W 123°13'815.4
2019-Jul-07 07:30N 48°41' W 123°16'714.6
2019-Jul-07 07:01N 48°45' W 123°06'611.2
2019-Jul-07 06:30N 48°50' W 123°02'918.1
2019-Jul-07 06:00N 48°56' W 123°12'917.4
2019-Jul-07 05:31N 49°02' W 123°22'510.6
2019-Jul-07 05:00N 49°07' W 123°17'611.4
2019-Jul-07 04:31N 49°06' W 123°08'510.9
2019-Jul-07 04:01N 49°09' W 123°01'4 8.6
2019-Jul-07 03:31N 49°11' W 122°55'0 0.6
2019-Jul-07 02:59N 49°11' W 122°55'0 0.0
2019-Jul-07 01:59N 49°11' W 122°55'0 0.0
2019-Jul-07 01:29N 49°11' W 122°55'0 0.0
2019-Jul-07 00:59N 49°11' W 122°55'0 0.0
2019-Jul-07 00:29N 49°11' W 122°55'0 0.0
2019-Jul-06 23:59N 49°11' W 122°55'0 0.0
2019-Jul-06 23:29N 49°11' W 122°55'0 0.0
2019-Jul-06 22:59N 49°11' W 122°55'0 0.0
2019-Jul-06 22:29N 49°11' W 122°55'0 0.0
2019-Jul-06 21:59N 49°11' W 122°55'0 0.0
2019-Jul-06 21:29N 49°11' W 122°55'0 0.0
2019-Jul-06 20:59N 49°11' W 122°55'0 0.0
2019-Jul-06 20:29N 49°11' W 122°55'0 0.0
2019-Jul-06 19:59N 49°11' W 122°55'0 0.0
2019-Jul-06 19:29N 49°11' W 122°55'0 0.0
2019-Jul-06 18:59N 49°11' W 122°55'0 0.0
2019-Jul-06 18:29N 49°11' W 122°55'0 0.0
2019-Jul-06 17:59N 49°11' W 122°55'0 0.0
2019-Jul-06 17:29N 49°11' W 122°55'0 0.0
2019-Jul-06 16:59N 49°11' W 122°55'0 0.0
2019-Jul-06 16:29N 49°11' W 122°55'0 0.0
2019-Jul-06 15:59N 49°11' W 122°55'0 0.0
2019-Jul-06 15:29N 49°11' W 122°55'0 0.0
2019-Jul-06 14:59N 49°11' W 122°55'0 0.0
2019-Jul-06 14:29N 49°11' W 122°55'0 0.0
2019-Jul-06 13:59N 49°11' W 122°55'0 0.0
2019-Jul-06 13:29N 49°11' W 122°55'0 0.0
2019-Jul-06 12:59N 49°11' W 122°55'0 0.3
2019-Jul-06 12:30N 49°11' W 122°55'2 4.5
2019-Jul-06 12:01N 49°09' W 122°57'4 8.8
2019-Jul-06 11:31N 49°08' W 123°04'510.3
2019-Jul-06 11:00N 49°07' W 123°11'611.4
2019-Jul-06 10:30N 49°06' W 123°20'4 8.0
2019-Jul-06 10:01N 49°02' W 123°17'714.0
2019-Jul-06 09:30N 48°57' W 123°09'714.1
2019-Jul-06 09:01N 48°52' W 123°02'611.3
2019-Jul-06 08:30N 48°46' W 123°01'713.5
2019-Jul-06 08:00N 48°43' W 123°10'611.3
2019-Jul-06 07:31N 48°38' W 123°14'714.3
2019-Jul-06 07:01N 48°31' W 123°11'713.0
2019-Jul-06 06:30N 48°25' W 123°11'612.4
2019-Jul-06 06:00N 48°22' W 123°19'3 5.1
2019-Jul-06 05:30N 48°21' W 123°22'1 1.7
2019-Jul-06 05:00N 48°21' W 123°21'0 0.1
2019-Jul-06 04:31N 48°21' W 123°22'0 0.1
2019-Jul-06 04:00N 48°21' W 123°21'0 0.0
2019-Jul-06 03:30N 48°21' W 123°21'0 0.0
2019-Jul-06 03:01N 48°21' W 123°21'0 0.0
2019-Jul-06 01:54N 48°21' W 123°21'0 0.0
2019-Jul-06 01:22N 48°21' W 123°21'0 0.1
2019-Jul-06 00:58N 48°21' W 123°21'0 0.0
2019-Jul-06 00:18N 48°21' W 123°21'0 0.0
2019-Jul-05 23:40N 48°21' W 123°21'0 0.0
2019-Jul-05 23:27N 48°21' W 123°21'0 0.0
2019-Jul-05 21:12N 48°21' W 123°21'0 0.2
2019-Jul-05 21:00N 48°21' W 123°22'0 0.2
2019-Jul-05 20:30N 48°21' W 123°22'0 0.1
2019-Jul-05 20:00N 48°21' W 123°22'0 0.1
2019-Jul-05 19:30N 48°21' W 123°22'0 0.0
2019-Jul-05 19:00N 48°21' W 123°22'0 0.0
2019-Jul-05 18:30N 48°21' W 123°22'0 0.0
2019-Jul-05 18:00N 48°21' W 123°22'0 0.0
2019-Jul-05 17:31N 48°21' W 123°22'0 0.1
2019-Jul-05 17:01N 48°21' W 123°22'0 0.0
2019-Jul-05 16:31N 48°21' W 123°22'0 0.0
2019-Jul-05 16:00N 48°21' W 123°22'0 0.1
2019-Jul-05 15:30N 48°21' W 123°22'0 0.0
2019-Jul-05 15:00N 48°21' W 123°22'0 0.0
2019-Jul-05 14:30N 48°21' W 123°22'0 0.1
2019-Jul-05 14:01N 48°21' W 123°22'0 0.2
2019-Jul-05 13:30N 48°21' W 123°22'0 0.2
2019-Jul-05 13:00N 48°21' W 123°21'0 0.0
2019-Jul-05 12:30N 48°21' W 123°21'0 0.1
2019-Jul-05 12:00N 48°21' W 123°22'0 0.1
2019-Jul-05 11:28N 48°21' W 123°21'0 0.0
2019-Jul-05 11:00N 48°21' W 123°21'0 0.1
2019-Jul-05 10:30N 48°21' W 123°22'0 0.1
2019-Jul-05 10:01N 48°21' W 123°22'0 0.1
2019-Jul-05 09:30N 48°21' W 123°22'0 0.1
2019-Jul-05 09:00N 48°21' W 123°22'0 0.1
2019-Jul-05 08:31N 48°21' W 123°22'0 0.0
2019-Jul-05 08:01N 48°21' W 123°22'0 0.1
2019-Jul-05 07:30N 48°21' W 123°22'0 0.0
2019-Jul-05 07:01N 48°21' W 123°22'0 0.0
2019-Jul-05 06:30N 48°21' W 123°22'0 0.1
2019-Jul-05 06:00N 48°21' W 123°22'0 0.1
2019-Jul-05 05:30N 48°21' W 123°22'0 0.3
2019-Jul-05 05:01N 48°21' W 123°22'0 0.1
2019-Jul-05 04:30N 48°21' W 123°22'0 0.1
2019-Jul-05 04:00N 48°21' W 123°22'0 0.1
2019-Jul-05 03:25N 48°21' W 123°21'0 0.0
2019-Jul-05 03:00N 48°21' W 123°21'0 0.0
2019-Jul-05 01:54N 48°21' W 123°21'0 0.0
2019-Jul-05 01:30N 48°21' W 123°21'0 0.1
2019-Jul-05 00:58N 48°21' W 123°21'0 0.1
2019-Jul-05 00:16N 48°21' W 123°21'0 0.1
2019-Jul-04 23:51N 48°21' W 123°21'0 0.1
2019-Jul-04 23:28N 48°21' W 123°21'0 0.0
2019-Jul-04 22:58N 48°21' W 123°21'0 0.0
2019-Jul-04 22:15N 48°21' W 123°21'0 0.1
2019-Jul-04 20:42N 48°21' W 123°21'0 0.3
2019-Jul-04 20:25N 48°21' W 123°21'1 1.6
2019-Jul-04 20:00N 48°21' W 123°22'3 7.0
2019-Jul-04 19:30N 48°18' W 123°25'5 9.7
2019-Jul-04 19:00N 48°14' W 123°29'610.8
2019-Jul-04 18:28N 48°14' W 123°38'510.7
2019-Jul-04 18:00N 48°13' W 123°45'611.0
2019-Jul-04 17:29N 48°14' W 123°54'511.4
2019-Jul-04 17:00N 48°16' W 124°02'611.2
2019-Jul-04 16:29N 48°18' W 124°09'611.3
2019-Jul-04 16:00N 48°20' W 124°17'611.2
2019-Jul-04 15:30N 48°23' W 124°25'511.0
2019-Jul-04 15:00N 48°25' W 124°32'510.9
2019-Jul-04 14:30N 48°27' W 124°40'611.5
2019-Jul-04 14:00N 48°28' W 124°48'712.9
2019-Jul-04 13:29N 48°28' W 124°58'713.7
2019-Jul-04 13:00N 48°23' W 125°04'714.4
2019-Jul-04 12:30N 48°16' W 125°09'713.9
2019-Jul-04 12:00N 48°10' W 125°13'814.2
2019-Jul-04 11:28N 48°03' W 125°17'1113.8
2019-Jul-04 10:38N 47°52' W 125°23'2314.2
2019-Jul-04 09:00N 47°29' W 125°22'5014.1
2019-Jul-04 05:25N 46°38' W 125°20'1114.1
2019-Jul-04 04:38N 46°27' W 125°20'213.9
2019-Jul-04 04:30N 46°25' W 125°20'  

Dump ship's entire track history